Time;durP1;ratioP1;P1;durP2;ratioP2;P2;SDS_P1;SDS_P2;PMS_P1;PMS_P2;Temp;Humidity;BMP_temperature;BMP_pressure;BME280_temperature;BME280_humidity;BME280_pressure;Samples;Min_cycle;Max_cycle;Signal;HPM_P1;HPM_P2
2023/06/27 00:01:04;;;;;;;3.80;1.90;;;17.30;99.90;;;;;;5203340;28;20455;-48
2023/06/27 00:03:34;;;;;;;2.17;1.97;;;17.30;99.90;;;;;;5206965;28;21451;-48
2023/06/27 00:06:05;;;;;;;3.43;1.93;;;17.20;99.90;;;;;;5206513;28;20442;-48
2023/06/27 00:08:36;;;;;;;1.93;1.83;;;17.20;99.90;;;;;;5205380;28;20877;-48
2023/06/27 00:11:06;;;;;;;2.83;1.43;;;17.10;99.90;;;;;;5204716;28;20207;-48
2023/06/27 00:13:40;;;;;;;3.43;1.73;;;17.00;99.90;;;;;;5201022;28;20275;-48
2023/06/27 00:16:15;;;;;;;9.53;2.13;;;17.00;99.90;;;;;;5195500;28;20175;-47
2023/06/27 00:18:48;;;;;;;1.83;1.53;;;17.00;99.90;;;;;;5190133;28;20422;-49
2023/06/27 00:21:19;;;;;;;2.00;1.73;;;16.90;99.90;;;;;;5205400;28;20508;-47
2023/06/27 00:23:50;;;;;;;4.60;2.00;;;16.90;99.90;;;;;;5204140;28;20431;-48
2023/06/27 00:26:20;;;;;;;4.13;2.20;;;16.90;99.90;;;;;;5205884;28;20180;-49
2023/06/27 00:28:51;;;;;;;7.73;1.97;;;16.90;99.90;;;;;;5200730;28;20247;-48
2023/06/27 00:31:22;;;;;;;3.23;1.80;;;16.80;99.90;;;;;;5196143;28;20279;-47
2023/06/27 00:33:53;;;;;;;5.53;2.00;;;16.80;99.90;;;;;;5183739;28;20204;-48
2023/06/27 00:36:23;;;;;;;3.33;1.67;;;16.80;99.90;;;;;;5198639;28;20427;-48
2023/06/27 00:38:54;;;;;;;3.60;1.97;;;16.80;99.90;;;;;;5201242;28;20586;-47
2023/06/27 00:41:24;;;;;;;6.80;1.83;;;16.70;99.90;;;;;;5205789;28;20219;-48
2023/06/27 00:43:56;;;;;;;7.50;1.60;;;16.70;99.90;;;;;;5202400;28;20196;-47
2023/06/27 00:46:35;;;;;;;3.07;1.90;;;16.70;99.90;;;;;;5204919;28;20184;-47
2023/06/27 00:49:08;;;;;;;4.20;2.13;;;16.60;99.90;;;;;;5199680;28;20437;-47
2023/06/27 00:51:42;;;;;;;3.53;1.50;;;16.50;99.90;;;;;;5204223;28;20451;-48
2023/06/27 00:54:15;;;;;;;3.20;2.30;;;16.40;99.90;;;;;;5190804;28;20966;-48
2023/06/27 00:56:46;;;;;;;4.33;2.50;;;16.40;99.90;;;;;;5207186;28;20442;-47
2023/06/27 00:59:17;;;;;;;4.90;2.67;;;16.40;99.90;;;;;;5207723;28;20437;-48
2023/06/27 01:01:48;;;;;;;4.27;2.27;;;16.30;99.90;;;;;;5191008;28;20458;-48
2023/06/27 01:04:19;;;;;;;6.20;2.60;;;16.40;99.90;;;;;;5204393;28;20199;-47
2023/06/27 01:07:13;;;;;;;3.90;2.27;;;16.30;99.90;;;;;;5208065;28;20560;-47
2023/06/27 01:09:50;;;;;;;4.53;1.80;;;16.30;99.90;;;;;;5199059;28;20307;-48
2023/06/27 01:12:48;;;;;;;4.27;2.20;;;16.30;99.90;;;;;;5193553;28;21021;-48
2023/06/27 01:15:19;;;;;;;2.30;2.10;;;16.30;99.90;;;;;;5207462;28;20431;-47
2023/06/27 01:17:50;;;;;;;2.10;1.97;;;16.30;99.90;;;;;;5206375;28;20961;-48
2023/06/27 01:20:21;;;;;;;3.10;1.83;;;16.20;99.90;;;;;;5209170;28;20184;-48
2023/06/27 01:23:15;;;;;;;8.00;3.03;;;16.10;99.90;;;;;;5191872;28;20446;-48
2023/06/27 01:25:45;;;;;;;7.20;2.30;;;16.10;99.90;;;;;;5201889;28;20270;-48
2023/06/27 01:28:17;;;;;;;3.33;1.80;;;16.10;99.90;;;;;;5200531;28;20624;-47
2023/06/27 01:30:48;;;;;;;3.17;1.97;;;16.00;99.90;;;;;;5199207;28;20239;-48
2023/06/27 01:33:26;;;;;;;6.10;2.30;;;16.00;99.90;;;;;;5207032;28;20512;-47
2023/06/27 01:36:16;;;;;;;3.00;2.57;;;15.90;99.90;;;;;;5200725;28;20172;-47
2023/06/27 01:38:59;;;;;;;2.53;2.33;;;15.90;99.90;;;;;;5194984;28;20438;-47
2023/06/27 01:41:34;;;;;;;6.00;2.77;;;15.90;99.90;;;;;;5201496;28;20451;-48
2023/06/27 01:44:09;;;;;;;9.80;2.20;;;15.90;99.90;;;;;;5201323;28;20508;-47
2023/06/27 01:46:41;;;;;;;3.10;2.20;;;15.80;99.90;;;;;;5198030;28;20442;-47
2023/06/27 01:49:12;;;;;;;19.83;2.77;;;15.80;99.90;;;;;;5196024;28;20466;-47
2023/06/27 01:51:43;;;;;;;2.77;2.23;;;15.80;99.90;;;;;;5206949;28;20541;-48
2023/06/27 01:54:14;;;;;;;4.33;2.60;;;15.80;99.90;;;;;;5196793;28;20553;-48
2023/06/27 01:56:44;;;;;;;7.87;2.80;;;15.80;99.90;;;;;;5208147;28;20187;-48
2023/06/27 01:59:15;;;;;;;5.90;1.87;;;15.80;99.90;;;;;;5216249;28;20544;-47
2023/06/27 02:01:45;;;;;;;6.40;2.70;;;15.70;99.90;;;;;;5206790;28;20290;-48
2023/06/27 02:04:16;;;;;;;3.47;2.50;;;15.70;99.90;;;;;;5206174;28;20549;-47
2023/06/27 02:06:47;;;;;;;6.13;2.67;;;15.60;99.90;;;;;;5201170;28;20652;-47
2023/06/27 02:09:17;;;;;;;4.77;2.50;;;15.60;99.90;;;;;;5203212;28;20243;-47
2023/06/27 02:11:48;;;;;;;4.13;2.33;;;15.50;99.90;;;;;;5209354;28;20663;-47
2023/06/27 02:14:19;;;;;;;8.53;2.90;;;15.50;99.90;;;;;;5206808;28;20282;-47
2023/06/27 02:16:49;;;;;;;5.90;2.70;;;15.50;99.90;;;;;;5204897;28;20191;-47
2023/06/27 02:19:20;;;;;;;7.77;3.23;;;15.60;99.90;;;;;;5198848;28;20183;-48
2023/06/27 02:21:50;;;;;;;1.97;1.87;;;15.50;99.90;;;;;;5183480;28;20212;-47
2023/06/27 02:24:21;;;;;;;16.13;3.07;;;15.50;99.90;;;;;;5205881;28;20273;-47
2023/06/27 02:26:53;;;;;;;7.87;3.00;;;15.50;99.90;;;;;;5207268;28;20263;-48
2023/06/27 02:29:23;;;;;;;11.80;2.60;;;15.40;99.90;;;;;;5210261;28;20237;-48
2023/06/27 02:31:54;;;;;;;2.30;2.00;;;15.40;99.90;;;;;;5204154;28;20470;-47
2023/06/27 02:34:24;;;;;;;15.60;2.63;;;15.40;99.90;;;;;;5200746;28;20230;-47
2023/06/27 02:36:55;;;;;;;15.97;2.60;;;15.30;99.90;;;;;;5200135;28;20191;-47
2023/06/27 02:39:26;;;;;;;7.50;2.90;;;15.30;99.90;;;;;;5202419;28;20181;-47
2023/06/27 02:41:56;;;;;;;8.70;2.63;;;15.40;99.90;;;;;;5200241;28;20216;-48
2023/06/27 02:44:27;;;;;;;11.93;3.00;;;15.40;99.90;;;;;;5206844;28;20210;-48
2023/06/27 02:46:57;;;;;;;6.37;2.80;;;15.40;99.90;;;;;;5206930;28;20184;-47
2023/06/27 02:49:28;;;;;;;4.40;2.63;;;15.40;99.90;;;;;;5202524;28;20217;-48
2023/06/27 02:51:59;;;;;;;4.87;3.03;;;15.40;99.90;;;;;;5198553;28;20755;-48
2023/06/27 02:54:29;;;;;;;6.03;2.97;;;15.30;99.90;;;;;;5199174;28;20215;-47
2023/06/27 02:57:00;;;;;;;5.27;3.20;;;15.30;99.90;;;;;;5191850;28;20533;-48
2023/06/27 02:59:31;;;;;;;5.23;2.50;;;15.30;99.90;;;;;;5197175;28;20184;-47
2023/06/27 03:02:01;;;;;;;3.13;2.83;;;15.30;99.90;;;;;;5205195;28;20560;-47
2023/06/27 03:04:32;;;;;;;3.13;2.70;;;15.30;99.90;;;;;;5196954;28;20184;-46
2023/06/27 03:07:03;;;;;;;7.20;3.60;;;15.30;99.90;;;;;;5199219;28;20266;-48
2023/06/27 03:09:35;;;;;;;16.07;2.93;;;15.20;99.90;;;;;;5201461;28;20514;-48
2023/06/27 03:12:06;;;;;;;7.80;3.00;;;15.20;99.90;;;;;;5194579;28;20254;-47
2023/06/27 03:14:37;;;;;;;7.47;2.77;;;15.20;99.90;;;;;;5199980;28;20501;-48
2023/06/27 03:17:08;;;;;;;4.43;2.57;;;15.20;99.90;;;;;;5201884;28;20555;-48
2023/06/27 03:19:38;;;;;;;9.17;3.20;;;15.30;99.90;;;;;;5205514;28;20187;-47
2023/06/27 03:22:09;;;;;;;9.33;3.37;;;15.30;99.90;;;;;;5196028;28;20954;-47
2023/06/27 03:24:39;;;;;;;7.87;3.30;;;15.20;99.90;;;;;;5204609;28;20183;-47
2023/06/27 03:27:10;;;;;;;5.43;2.80;;;15.30;99.90;;;;;;5203940;28;20692;-48
2023/06/27 03:29:41;;;;;;;12.37;3.40;;;15.30;99.90;;;;;;5201183;28;20188;-47
2023/06/27 03:32:12;;;;;;;5.60;2.77;;;15.30;99.90;;;;;;5205736;28;20207;-48
2023/06/27 03:34:44;;;;;;;8.73;3.33;;;15.30;99.90;;;;;;5192216;28;20284;-47
2023/06/27 03:37:15;;;;;;;7.77;2.80;;;15.30;99.90;;;;;;5201546;28;20434;-48
2023/06/27 03:39:47;;;;;;;7.40;3.30;;;15.40;99.90;;;;;;5203225;28;20491;-47
2023/06/27 03:42:18;;;;;;;15.07;2.60;;;15.30;99.90;;;;;;5206024;28;20210;-48
2023/06/27 03:44:48;;;;;;;6.63;2.80;;;15.30;99.90;;;;;;5205913;28;20426;-47
2023/06/27 03:47:19;;;;;;;5.50;2.80;;;15.40;99.90;;;;;;5206970;28;20476;-47
2023/06/27 03:49:50;;;;;;;13.10;3.20;;;15.40;99.90;;;;;;5203010;28;20223;-47
2023/06/27 03:52:20;;;;;;;5.60;3.00;;;15.40;99.90;;;;;;5193941;28;20207;-48
2023/06/27 03:54:51;;;;;;;8.60;2.63;;;15.40;99.90;;;;;;5193279;28;20223;-48
2023/06/27 03:57:21;;;;;;;4.77;2.37;;;15.40;99.90;;;;;;5203079;28;20183;-48
2023/06/27 03:59:52;;;;;;;5.30;2.87;;;15.50;99.90;;;;;;5204424;28;20210;-48
2023/06/27 04:02:23;;;;;;;3.30;2.57;;;15.40;99.90;;;;;;5203301;28;20200;-47
2023/06/27 04:04:53;;;;;;;11.63;3.80;;;15.40;99.90;;;;;;5199120;28;20222;-48
2023/06/27 04:07:24;;;;;;;13.27;3.17;;;15.50;99.90;;;;;;5205513;28;20180;-48
2023/06/27 04:09:54;;;;;;;12.73;2.93;;;15.50;99.90;;;;;;5199563;28;20188;-48
2023/06/27 04:12:25;;;;;;;12.50;3.00;;;15.60;99.90;;;;;;5198497;28;20298;-47
2023/06/27 04:14:56;;;;;;;9.47;2.60;;;15.70;99.90;;;;;;5205001;28;20222;-47
2023/06/27 04:17:26;;;;;;;9.43;3.00;;;15.80;99.90;;;;;;5189529;28;20203;-48
2023/06/27 04:19:57;;;;;;;3.53;2.87;;;15.80;99.90;;;;;;5199454;28;20184;-47
2023/06/27 04:22:27;;;;;;;5.07;2.40;;;15.90;99.90;;;;;;5209805;28;20203;-48
2023/06/27 04:24:58;;;;;;;6.83;3.13;;;16.00;99.90;;;;;;5211414;28;20184;-47
2023/06/27 04:27:28;;;;;;;8.77;2.43;;;16.10;99.90;;;;;;5211036;28;20176;-47
2023/06/27 04:29:59;;;;;;;6.33;3.13;;;16.10;99.90;;;;;;5211211;28;20199;-47
2023/06/27 04:32:33;;;;;;;12.57;3.10;;;16.30;99.90;;;;;;5207669;28;20210;-47
2023/06/27 04:35:04;;;;;;;7.37;2.73;;;16.40;99.90;;;;;;5203403;28;20278;-47
2023/06/27 04:37:37;;;;;;;4.63;2.93;;;16.50;99.90;;;;;;5209658;28;20476;-47
2023/06/27 04:40:10;;;;;;;4.90;2.40;;;16.80;99.90;;;;;;5196122;28;20434;-47
2023/06/27 04:42:41;;;;;;;8.67;2.60;;;17.10;99.90;;;;;;5205284;28;20513;-47
2023/06/27 04:45:12;;;;;;;4.60;2.67;;;17.30;99.90;;;;;;5205659;28;20406;-47
2023/06/27 04:47:43;;;;;;;9.60;3.37;;;17.70;99.90;;;;;;5211757;28;20302;-47
2023/06/27 04:50:18;;;;;;;4.57;2.73;;;17.90;99.90;;;;;;5210710;28;20190;-47
2023/06/27 04:52:48;;;;;;;13.93;2.93;;;18.40;99.90;;;;;;5205575;28;20226;-47
2023/06/27 04:55:19;;;;;;;7.47;2.60;;;19.20;99.90;;;;;;5203498;28;20434;-47
2023/06/27 04:57:51;;;;;;;12.03;3.20;;;19.60;99.90;;;;;;5211991;28;20242;-47
2023/06/27 05:00:22;;;;;;;2.90;2.67;;;19.80;99.90;;;;;;5206850;28;20180;-47
2023/06/27 05:02:52;;;;;;;8.30;2.60;;;20.50;99.90;;;;;;5201467;28;20430;-46
2023/06/27 05:05:31;;;;;;;16.03;2.10;;;21.00;99.90;;;;;;5193479;28;20230;-47
2023/06/27 05:08:03;;;;;;;10.10;2.50;;;21.10;99.90;;;;;;5209327;28;20183;-47
2023/06/27 05:10:34;;;;;;;4.53;2.77;;;21.10;99.90;;;;;;5208979;28;20492;-48
2023/06/27 05:13:05;;;;;;;8.23;2.20;;;21.60;99.90;;;;;;5204686;28;20470;-47
2023/06/27 05:15:35;;;;;;;8.43;2.40;;;21.80;99.90;;;;;;5205379;28;20596;-48
2023/06/27 05:18:06;;;;;;;7.23;2.30;;;22.70;99.90;;;;;;5203857;28;20183;-48
2023/06/27 05:20:36;;;;;;;6.70;2.40;;;23.00;98.30;;;;;;5195764;28;20545;-47
2023/06/27 05:23:07;;;;;;;7.93;2.30;;;23.70;94.60;;;;;;5208942;28;20658;-48
2023/06/27 05:25:38;;;;;;;8.77;2.80;;;23.40;92.70;;;;;;5208338;28;20199;-49
2023/06/27 05:28:09;;;;;;;5.57;2.30;;;23.50;91.60;;;;;;5197701;28;20211;-48
2023/06/27 05:30:39;;;;;;;4.83;2.10;;;23.90;90.40;;;;;;5191719;28;20192;-48
2023/06/27 05:33:10;;;;;;;11.23;2.37;;;24.60;85.30;;;;;;5203380;28;20195;-48
2023/06/27 05:35:40;;;;;;;8.57;3.27;;;24.60;83.00;;;;;;5197365;28;20184;-48
2023/06/27 05:38:11;;;;;;;8.23;2.23;;;23.80;82.30;;;;;;5195793;28;20180;-48
2023/06/27 05:40:42;;;;;;;5.90;1.70;;;24.60;80.10;;;;;;5206333;28;20625;-48
2023/06/27 05:43:13;;;;;;;4.23;2.00;;;26.00;75.70;;;;;;5189876;28;20194;-47
2023/06/27 05:45:44;;;;;;;6.40;2.67;;;27.60;67.20;;;;;;5205044;28;20447;-48
2023/06/27 05:48:15;;;;;;;10.90;2.30;;;28.20;60.00;;;;;;5206731;28;20187;-49
2023/06/27 05:50:45;;;;;;;3.53;1.90;;;28.60;55.70;;;;;;5207830;28;20200;-49
2023/06/27 05:53:16;;;;;;;4.40;1.93;;;27.50;56.10;;;;;;5198601;28;20210;-50
2023/06/27 05:55:47;;;;;;;6.20;1.93;;;28.00;54.80;;;;;;5200949;28;20187;-47
2023/06/27 05:58:17;;;;;;;5.07;2.07;;;29.10;54.20;;;;;;5207218;28;20644;-48
2023/06/27 06:00:48;;;;;;;11.00;2.63;;;30.20;50.20;;;;;;5204040;28;20675;-48
2023/06/27 06:03:18;;;;;;;4.33;2.27;;;30.40;49.10;;;;;;5209129;28;20271;-47
2023/06/27 06:05:49;;;;;;;15.80;2.30;;;30.10;46.90;;;;;;5215156;28;20195;-48
2023/06/27 06:08:20;;;;;;;4.20;1.80;;;28.80;49.40;;;;;;5201578;28;20540;-49
2023/06/27 06:10:50;;;;;;;4.83;2.23;;;28.40;49.00;;;;;;5199621;28;20212;-48
2023/06/27 06:13:21;;;;;;;6.00;2.53;;;28.70;49.00;;;;;;5201387;28;20668;-50
2023/06/27 06:15:51;;;;;;;7.97;2.10;;;29.60;48.60;;;;;;5203015;28;20184;-48
2023/06/27 06:18:22;;;;;;;2.87;1.70;;;28.70;47.60;;;;;;5201503;28;20242;-48
2023/06/27 06:20:53;;;;;;;5.47;1.70;;;28.70;48.00;;;;;;5213522;28;20235;-49
2023/06/27 06:23:24;;;;;;;13.33;2.63;;;29.40;48.10;;;;;;5206142;28;20523;-49
2023/06/27 06:25:54;;;;;;;2.93;1.50;;;30.00;45.90;;;;;;5205478;28;20179;-48
2023/06/27 06:28:25;;;;;;;5.20;1.73;;;29.30;46.90;;;;;;5199378;28;20637;-49
2023/06/27 06:30:55;;;;;;;2.00;1.83;;;29.60;46.50;;;;;;5200940;28;20287;-49
2023/06/27 06:33:27;;;;;;;4.73;1.77;;;30.00;45.80;;;;;;5198709;28;20604;-48
2023/06/27 06:35:58;;;;;;;8.30;2.20;;;29.90;44.20;;;;;;5200705;28;20179;-48
2023/06/27 06:38:28;;;;;;;2.27;1.70;;;29.50;45.60;;;;;;5203296;28;20438;-48
2023/06/27 06:40:59;;;;;;;6.60;2.00;;;28.40;47.70;;;;;;5206924;28;20207;-48
2023/06/27 06:43:30;;;;;;;4.07;1.30;;;27.70;48.70;;;;;;5199865;28;20275;-50
2023/06/27 06:46:00;;;;;;;10.23;1.90;;;27.20;49.70;;;;;;5204508;28;20184;-47
2023/06/27 06:48:31;;;;;;;2.77;1.20;;;25.60;51.10;;;;;;5201462;28;20651;-49
2023/06/27 06:51:02;;;;;;;10.07;2.00;;;25.80;52.20;;;;;;5197787;28;20212;-48
2023/06/27 06:53:32;;;;;;;8.73;3.33;;;27.50;49.80;;;;;;5203000;28;20199;-50
2023/06/27 06:56:03;;;;;;;4.43;1.90;;;27.50;49.10;;;;;;5204307;28;20194;-48
2023/06/27 06:58:34;;;;;;;3.03;1.97;;;26.30;51.40;;;;;;5199675;28;20196;-47
2023/06/27 07:01:05;;;;;;;6.33;1.87;;;25.50;53.30;;;;;;5193532;28;20255;-48
2023/06/27 07:03:36;;;;;;;3.10;1.77;;;25.90;53.10;;;;;;5199074;28;20253;-48
2023/06/27 07:06:07;;;;;;;6.30;2.50;;;25.80;52.40;;;;;;5196319;28;20929;-49
2023/06/27 07:08:38;;;;;;;6.30;2.00;;;24.00;55.10;;;;;;5201851;28;20466;-47
2023/06/27 07:11:09;;;;;;;2.97;1.60;;;23.80;56.70;;;;;;5201773;28;20649;-48
2023/06/27 07:13:40;;;;;;;5.73;1.60;;;25.10;54.90;;;;;;5201419;28;20545;-48
2023/06/27 07:16:10;;;;;;;4.33;1.57;;;24.60;54.40;;;;;;5202802;28;20176;-48
2023/06/27 07:18:41;;;;;;;7.77;1.63;;;25.90;53.20;;;;;;5201972;28;20176;-48
2023/06/27 07:21:12;;;;;;;5.03;1.70;;;25.90;51.80;;;;;;5199959;28;20302;-48
2023/06/27 07:23:42;;;;;;;4.20;1.57;;;27.60;49.50;;;;;;5206154;28;20663;-49
2023/06/27 07:26:13;;;;;;;5.13;1.57;;;28.30;48.00;;;;;;5200853;28;20589;-47
2023/06/27 07:28:43;;;;;;;3.03;1.17;;;28.20;47.70;;;;;;5197474;28;20183;-49
2023/06/27 07:31:14;;;;;;;5.73;2.10;;;27.40;48.20;;;;;;5201198;28;20231;-47
2023/06/27 07:33:45;;;;;;;6.07;1.37;;;25.90;51.60;;;;;;5204127;28;20223;-48
2023/06/27 07:36:15;;;;;;;10.80;2.30;;;25.90;50.80;;;;;;5201956;28;20184;-49
2023/06/27 07:38:46;;;;;;;7.20;1.90;;;27.70;48.00;;;;;;5203525;28;20183;-47
2023/06/27 07:41:16;;;;;;;6.40;2.00;;;26.70;49.30;;;;;;5202937;28;20216;-48
2023/06/27 07:43:47;;;;;;;2.73;1.70;;;26.30;50.00;;;;;;5206273;28;20211;-48
2023/06/27 07:46:18;;;;;;;3.70;1.60;;;25.40;51.30;;;;;;5204436;28;20571;-47
2023/06/27 07:48:48;;;;;;;4.10;2.00;;;24.90;52.70;;;;;;5205211;28;20195;-48
2023/06/27 07:51:19;;;;;;;4.53;2.00;;;25.60;50.70;;;;;;5201311;28;20203;-48
2023/06/27 07:53:49;;;;;;;1.20;1.10;;;25.90;51.10;;;;;;5196172;28;20215;-49
2023/06/27 07:56:20;;;;;;;1.43;1.33;;;27.60;48.30;;;;;;5200143;28;20194;-49
2023/06/27 07:58:51;;;;;;;5.67;1.87;;;27.40;47.60;;;;;;5202647;28;20270;-48
2023/06/27 08:01:21;;;;;;;2.93;1.57;;;26.30;49.00;;;;;;5203955;28;20195;-47
2023/06/27 08:03:52;;;;;;;4.87;0.97;;;24.20;52.20;;;;;;5205653;28;20589;-48
2023/06/27 08:06:22;;;;;;;6.07;1.50;;;22.70;54.60;;;;;;5204943;28;20571;-47
2023/06/27 08:08:53;;;;;;;3.10;1.33;;;23.10;55.20;;;;;;5206986;28;20270;-48
2023/06/27 08:11:24;;;;;;;2.30;1.00;;;25.80;51.60;;;;;;5200167;28;20211;-48
2023/06/27 08:13:54;;;;;;;3.23;1.20;;;27.80;46.70;;;;;;5198093;28;20216;-48
2023/06/27 08:16:25;;;;;;;4.63;1.40;;;30.20;43.80;;;;;;5200468;28;20180;-48
2023/06/27 08:18:56;;;;;;;2.93;1.50;;;31.90;40.40;;;;;;5196198;28;20196;-48
2023/06/27 08:21:26;;;;;;;6.53;1.70;;;30.80;40.10;;;;;;5206848;28;20222;-48
2023/06/27 08:23:57;;;;;;;7.23;1.30;;;28.00;44.10;;;;;;5205937;28;20648;-49
2023/06/27 08:26:29;;;;;;;1.63;1.53;;;26.90;47.00;;;;;;5201125;28;20271;-48
2023/06/27 08:29:00;;;;;;;2.93;1.17;;;28.20;44.20;;;;;;5197847;28;20188;-48
2023/06/27 08:31:30;;;;;;;10.00;1.30;;;29.50;42.20;;;;;;5200077;28;20466;-48
2023/06/27 08:34:01;;;;;;;4.47;0.77;;;30.10;39.80;;;;;;5199957;28;20219;-49
2023/06/27 08:36:32;;;;;;;2.93;0.90;;;30.40;39.50;;;;;;5208077;28;20645;-47
2023/06/27 08:39:03;;;;;;;1.20;1.13;;;30.00;38.10;;;;;;5205559;28;20463;-48
2023/06/27 08:41:34;;;;;;;1.60;1.33;;;29.70;39.10;;;;;;5203632;28;20219;-48
2023/06/27 08:44:05;;;;;;;13.73;1.70;;;27.30;42.10;;;;;;5204761;28;20442;-49
2023/06/27 08:46:36;;;;;;;7.47;1.53;;;26.10;45.40;;;;;;5199487;28;20227;-48
2023/06/27 08:49:10;;;;;;;2.67;1.30;;;26.30;46.00;;;;;;5199756;28;20191;-50
2023/06/27 08:51:43;;;;;;;3.67;1.20;;;26.20;46.60;;;;;;5198003;28;20438;-48
2023/06/27 08:54:22;;;;;;;3.30;1.40;;;24.90;47.70;;;;;;5199595;28;20819;-49
2023/06/27 08:56:53;;;;;;;5.20;1.50;;;23.80;50.40;;;;;;5202600;28;20845;-48
2023/06/27 08:59:26;;;;;;;1.43;1.33;;;23.30;51.70;;;;;;5200514;28;20434;-48
2023/06/27 09:02:00;;;;;;;2.97;1.70;;;23.30;51.50;;;;;;5198901;28;20497;-48
2023/06/27 09:04:33;;;;;;;3.60;1.27;;;23.50;52.00;;;;;;5200895;28;20985;-47
2023/06/27 09:07:04;;;;;;;3.27;1.50;;;23.60;51.40;;;;;;5200259;28;20414;-48
2023/06/27 09:09:35;;;;;;;4.20;1.20;;;23.20;51.90;;;;;;5200963;28;20936;-47
2023/06/27 09:12:07;;;;;;;1.10;1.10;;;23.30;52.50;;;;;;5206313;28;20622;-48
2023/06/27 09:14:37;;;;;;;1.23;1.00;;;23.30;51.60;;;;;;5192036;28;20469;-48
2023/06/27 09:17:08;;;;;;;1.80;1.13;;;23.00;52.30;;;;;;5208940;28;20438;-48
2023/06/27 09:19:39;;;;;;;3.50;1.47;;;22.90;52.90;;;;;;5204161;28;20570;-47
2023/06/27 09:22:10;;;;;;;12.40;2.77;;;22.20;55.70;;;;;;5206679;28;20278;-47
2023/06/27 09:24:41;;;;;;;1.50;0.80;;;21.00;56.90;;;;;;5203821;28;20179;-47
2023/06/27 09:27:30;;;;;;;0.97;0.97;;;20.40;58.30;;;;;;5188729;28;20443;-49
2023/06/27 09:30:02;;;;;;;0.77;0.77;;;20.40;59.00;;;;;;5205733;28;20442;-46
2023/06/27 09:32:55;;;;;;;0.97;0.97;;;20.70;60.50;;;;;;5205812;28;20465;-49
2023/06/27 09:35:27;;;;;;;6.80;1.07;;;20.90;61.40;;;;;;5205583;28;20931;-47
2023/06/27 09:38:09;;;;;;;1.43;1.00;;;20.90;61.70;;;;;;5204193;28;20812;-48
2023/06/27 09:40:41;;;;;;;1.37;1.00;;;20.70;61.60;;;;;;5192101;28;20450;-50
2023/06/27 09:43:14;;;;;;;3.80;0.83;;;20.70;62.40;;;;;;5204904;28;20429;-47
2023/06/27 09:45:56;;;;;;;4.93;4.03;;;20.80;62.00;;;;;;5201864;28;20467;-48
2023/06/27 09:48:30;;;;;;;2.63;1.00;;;21.00;62.80;;;;;;5209589;28;20410;-47
2023/06/27 09:51:02;;;;;;;1.90;1.27;;;21.10;62.90;;;;;;5205531;28;20967;-48
2023/06/27 09:53:33;;;;;;;2.53;1.60;;;21.10;63.10;;;;;;5209146;28;20477;-49
2023/06/27 09:56:04;;;;;;;4.30;1.37;;;20.90;62.50;;;;;;5201725;28;20501;-50
2023/06/27 09:58:35;;;;;;;1.93;1.70;;;21.00;64.80;;;;;;5206557;28;20435;-49
2023/06/27 10:01:06;;;;;;;2.17;1.43;;;21.10;65.30;;;;;;5207584;28;20204;-50
2023/06/27 10:03:36;;;;;;;3.80;1.37;;;21.30;66.10;;;;;;5196297;28;20184;-49
2023/06/27 10:06:07;;;;;;;3.33;2.00;;;21.40;63.00;;;;;;5208699;28;20438;-49
2023/06/27 10:08:38;;;;;;;1.37;1.27;;;21.70;64.10;;;;;;5206578;28;20274;-49
2023/06/27 10:11:09;;;;;;;5.33;1.07;;;22.00;60.10;;;;;;5209348;28;20211;-47
2023/06/27 10:13:40;;;;;;;9.73;4.83;;;21.80;59.90;;;;;;5203964;28;20867;-49
2023/06/27 10:16:12;;;;;;;3.43;1.33;;;21.70;59.30;;;;;;5206334;28;20171;-48
2023/06/27 10:18:43;;;;;;;4.40;1.53;;;21.70;58.90;;;;;;5202392;28;20556;-48
2023/06/27 10:21:16;;;;;;;4.10;1.10;;;21.70;59.60;;;;;;5202346;28;20458;-49
2023/06/27 10:23:52;;;;;;;3.13;1.37;;;21.70;56.70;;;;;;5183411;28;20507;-47
2023/06/27 10:26:26;;;;;;;1.37;1.07;;;21.90;57.40;;;;;;5207268;28;20437;-48
2023/06/27 10:28:57;;;;;;;3.77;1.67;;;22.50;57.30;;;;;;5198886;28;20463;-49
2023/06/27 10:31:45;;;;;;;2.00;1.10;;;23.30;57.00;;;;;;5202088;28;20482;-48
2023/06/27 10:34:19;;;;;;;10.00;1.87;;;23.50;54.50;;;;;;5204245;28;20286;-47
2023/06/27 10:36:50;;;;;;;1.63;1.43;;;23.30;55.30;;;;;;5198482;28;20422;-48
2023/06/27 10:39:27;;;;;;;4.17;2.90;;;22.90;56.20;;;;;;5207941;28;20470;-49
2023/06/27 10:42:25;;;;;;;8.13;3.73;;;22.50;55.10;;;;;;5204683;28;20489;-48
2023/06/27 10:45:15;;;;;;;5.40;3.17;;;22.10;56.40;;;;;;5198712;28;20474;-48
2023/06/27 10:47:46;;;;;;;9.83;4.80;;;21.20;65.50;;;;;;5203902;28;20446;-49
2023/06/27 10:50:21;;;;;;;5.13;3.47;;;20.00;73.90;;;;;;5202006;28;20537;-48
2023/06/27 10:53:06;;;;;;;16.70;6.97;;;19.20;89.40;;;;;;5204987;28;20313;-48
2023/06/27 10:55:38;;;;;;;2.33;2.10;;;18.60;98.40;;;;;;5207584;28;20443;-48
2023/06/27 10:58:13;;;;;;;4.87;2.43;;;18.10;99.90;;;;;;5207482;28;20434;-49
2023/06/27 11:00:46;;;;;;;8.30;4.30;;;18.00;99.90;;;;;;5207388;28;20969;-48
2023/06/27 11:03:19;;;;;;;15.87;6.03;;;17.90;99.90;;;;;;5202877;28;20434;-48
2023/06/27 11:05:57;;;;;;;5.13;3.97;;;18.00;99.90;;;;;;5197604;28;20431;-47
2023/06/27 11:08:29;;;;;;;5.57;4.20;;;18.20;99.90;;;;;;5198440;28;20442;-48
2023/06/27 11:10:59;;;;;;;3.20;1.43;;;18.40;99.90;;;;;;5205166;28;20811;-48
2023/06/27 11:13:34;;;;;;;1.57;1.33;;;18.60;99.90;;;;;;5205336;28;20462;-49
2023/06/27 11:16:05;;;;;;;14.07;6.47;;;19.00;99.90;;;;;;5192431;28;20269;-47
2023/06/27 11:18:36;;;;;;;8.47;5.63;;;19.60;99.90;;;;;;5206420;28;20477;-49
2023/06/27 11:21:07;;;;;;;6.10;2.70;;;20.00;99.90;;;;;;5203741;28;20207;-49
2023/06/27 11:23:38;;;;;;;2.50;1.47;;;20.20;99.90;;;;;;5202218;28;20446;-47
2023/06/27 11:26:09;;;;;;;13.77;3.60;;;20.40;99.90;;;;;;5203510;28;20294;-48
2023/06/27 11:28:40;;;;;;;6.33;2.10;;;20.40;99.90;;;;;;5191238;28;20442;-48
2023/06/27 11:31:10;;;;;;;2.73;2.07;;;20.40;99.90;;;;;;5208392;28;20563;-49
2023/06/27 11:33:41;;;;;;;4.80;2.40;;;20.30;99.90;;;;;;5207152;28;20257;-49
2023/06/27 11:36:12;;;;;;;1.33;1.23;;;20.40;99.90;;;;;;5200702;28;20727;-48
2023/06/27 11:38:43;;;;;;;5.20;2.10;;;20.50;99.90;;;;;;5197475;28;20179;-47
2023/06/27 11:41:19;;;;;;;1.90;1.60;;;20.50;99.90;;;;;;5200689;28;20620;-48
2023/06/27 11:43:49;;;;;;;2.00;1.10;;;20.60;99.90;;;;;;5200689;28;20757;-49
2023/06/27 11:46:20;;;;;;;2.93;1.27;;;20.80;99.90;;;;;;5199304;28;20445;-50
2023/06/27 11:48:51;;;;;;;3.80;1.00;;;20.80;99.50;;;;;;5193643;28;20190;-48
2023/06/27 11:51:22;;;;;;;5.13;1.97;;;20.70;99.00;;;;;;5208007;28;20449;-48
2023/06/27 11:53:55;;;;;;;1.40;1.30;;;20.80;99.90;;;;;;5210582;28;20907;-49
2023/06/27 11:56:25;;;;;;;3.30;1.00;;;21.00;99.90;;;;;;5204627;28;20452;-49
2023/06/27 11:58:59;;;;;;;1.43;1.10;;;21.30;99.70;;;;;;5208347;28;20521;-49
2023/06/27 12:01:33;;;;;;;1.30;1.30;;;21.90;99.00;;;;;;5208695;28;20263;-48
2023/06/27 12:04:14;;;;;;;4.50;2.00;;;22.30;96.70;;;;;;5203848;28;20410;-49
2023/06/27 12:06:46;;;;;;;11.67;2.50;;;22.80;93.20;;;;;;5203680;28;20434;-48
2023/06/27 12:09:25;;;;;;;8.03;3.27;;;23.10;92.10;;;;;;5200811;28;20426;-48
2023/06/27 12:12:03;;;;;;;4.30;1.93;;;23.20;86.40;;;;;;5195638;28;20454;-48
2023/06/27 12:14:34;;;;;;;2.23;0.80;;;22.30;82.60;;;;;;5202977;28;20462;-47
2023/06/27 12:17:19;;;;;;;0.60;0.60;;;21.10;83.70;;;;;;5200908;28;20942;-48
2023/06/27 12:19:50;;;;;;;0.70;0.70;;;19.70;90.30;;;;;;5200259;28;20180;-48
2023/06/27 12:22:21;;;;;;;1.47;1.37;;;19.30;95.40;;;;;;5199573;28;20922;-48
2023/06/27 12:24:51;;;;;;;1.40;1.23;;;18.90;99.30;;;;;;5203560;28;20188;-48
2023/06/27 12:27:22;;;;;;;1.30;1.30;;;18.40;99.90;;;;;;5202358;28;20646;-47
2023/06/27 12:29:54;;;;;;;1.70;1.60;;;18.00;99.90;;;;;;5205038;28;20194;-48
2023/06/27 12:32:24;;;;;;;2.60;1.87;;;17.70;99.90;;;;;;5203080;28;20287;-48
2023/06/27 12:34:55;;;;;;;4.87;0.90;;;17.70;99.90;;;;;;5202987;28;20632;-48
2023/06/27 12:37:27;;;;;;;1.37;0.90;;;17.60;99.90;;;;;;5200357;28;20176;-48
2023/06/27 12:39:57;;;;;;;7.50;0.80;;;17.70;99.90;;;;;;5195189;28;20258;-48
2023/06/27 12:42:28;;;;;;;1.50;1.50;;;17.80;99.90;;;;;;5204185;28;20557;-50
2023/06/27 12:44:59;;;;;;;1.63;1.33;;;18.10;99.90;;;;;;5199815;28;20190;-49
2023/06/27 12:47:29;;;;;;;7.13;2.63;;;18.40;99.90;;;;;;5199936;28;20184;-48
2023/06/27 12:50:00;;;;;;;1.50;1.40;;;18.70;99.90;;;;;;5204157;28;20275;-48
2023/06/27 12:52:30;;;;;;;7.37;4.10;;;18.80;99.90;;;;;;5206303;28;20209;-48
2023/06/27 12:55:01;;;;;;;11.97;2.50;;;19.00;99.90;;;;;;5199160;28;20234;-48
2023/06/27 12:57:32;;;;;;;2.27;2.07;;;19.20;99.90;;;;;;5204498;28;20266;-47
2023/06/27 13:00:04;;;;;;;7.13;3.23;;;19.40;99.90;;;;;;5190717;28;20179;-47
2023/06/27 13:02:36;;;;;;;8.53;2.60;;;19.60;99.30;;;;;;5202073;28;20449;-48
2023/06/27 13:05:07;;;;;;;4.20;1.00;;;19.80;98.00;;;;;;5205119;28;20431;-50
2023/06/27 13:07:38;;;;;;;4.60;2.90;;;20.00;95.00;;;;;;5205815;28;20775;-48
2023/06/27 13:10:10;;;;;;;3.13;2.87;;;20.20;93.20;;;;;;5201856;28;20441;-47